Latest Weather Observations for Centre Island

IDD60801

Issued at 2:01 pm CST Friday 23 August 2019 (issued every 10 minutes, with the page automatically refreshed every 10 minutes)

About weather observations | Map of weather stations | Latest weather observations for NT | Other Formats
Station Details ID: 014703 Name: CENTRE ISLAND Lat: -15.74 Lon: 136.82 Height: 12.2 m
Data from the previous 72 hours. | See also: Recent months at Centre Island
Date/Time
CST
Temp
°C
App
Temp
°C
Dew
Point
°C
Rel
Hum
%
Delta-T
°C
Wind Press
QNH
hPa
Press
MSL
hPa
Rain since
9am
mm
Dir  Spd
km/h
Gust
km/h
Spd
kts
Gust
kts
23/02:00pm 28.0 24.2 11.1 35 9.6 E 22 26 12 14 1015.0 1015.0 0.0
23/01:30pm 28.0 22.7 9.8 32 10.1 E 28 30 15 16 1015.4 1015.4 0.0
23/01:00pm 27.4 22.3 10.6 35 9.5 ESE 28 33 15 18 1015.7 1015.7 0.0
23/12:30pm 26.7 20.8 9.1 33 9.6 ESE 30 35 16 19 1016.2 1016.2 0.0
23/12:00pm 26.8 20.7 9.6 34 9.5 ESE 32 35 17 19 1016.7 1016.7 0.0
23/11:30am 25.9 22.4 10.1 37 8.8 ESE 19 22 10 12 1017.4 1017.4 0.0
23/11:00am 24.9 22.2 8.8 36 8.7 ESE 13 17 7 9 1018.0 1018.0 0.0
23/10:30am 24.1 21.8 7.3 34 8.8 ESE 9 13 5 7 1018.5 1018.5 0.0
23/10:00am 23.4 21.1 9.0 40 7.7 SE 11 15 6 8 1018.9 1018.9 0.0
23/09:30am 22.9 19.5 9.3 42 7.3 SSE 17 20 9 11 1019.1 1019.1 0.0
23/09:00am 21.8 17.8 8.3 42 7.1 S 19 22 10 12 1019.0 1019.0 0.0
23/08:30am 21.2 17.9 9.4 47 6.3 S 17 20 9 11 1018.9 1018.9 0.0
23/08:00am 20.9 17.2 10.1 50 5.8 S 20 24 11 13 1018.6 1018.6 0.0
23/07:30am 20.4 16.4 10.5 53 5.4 S 22 26 12 14 1018.4 1018.4 0.0
23/07:00am 19.4 15.5 10.9 58 4.6 S 22 26 12 14 1018.1 1018.1 0.0
23/06:30am 19.1 15.0 11.4 61 4.2 S 24 28 13 15 1017.8 1017.8 0.0
23/06:00am 18.9 14.9 11.9 64 3.9 S 24 28 13 15 1017.9 1017.9 0.0
23/05:30am 18.9 15.3 13.1 69 3.3 S 24 28 13 15 1017.5 1017.5 0.0
23/05:00am 18.7 15.9 13.3 71 3.1 S 20 24 11 13 1017.5 1017.5 0.0
23/04:30am 18.8 16.8 13.9 73 2.8 S 17 20 9 11 1017.3 1017.3 0.0
23/04:00am 18.6 16.7 14.3 76 2.5 S 17 20 9 11 1017.2 1017.2 0.0
23/03:30am 18.5 17.8 15.4 82 1.8 S 13 15 7 8 1017.2 1017.2 0.0
23/03:00am 18.7 18.3 16.3 86 1.4 S 13 15 7 8 1017.2 1017.2 0.0
23/02:30am 18.5 18.9 16.3 87 1.3 SSW 9 9 5 5 1017.2 1017.2 0.0
23/02:00am 18.5 18.9 16.3 87 1.3 SSW 9 11 5 6 1017.4 1017.4 0.0
23/01:30am 18.9 19.3 16.3 85 1.6 S 9 13 5 7 1017.5 1017.5 0.0
23/01:00am 19.4 19.2 16.6 84 1.7 S 13 15 7 8 1017.6 1017.6 0.0
23/12:30am 20.2 20.4 17.6 85 1.6 SE 13 15 7 8 1017.7 1017.7 0.0
23/12:00am 19.8 20.3 16.6 82 1.9 ESE 9 9 5 5 1017.8 1017.8 0.0
 
Date/Time
CST
Temp
°C
App
Temp
°C
Dew
Point
°C
Rel
Hum
%
Delta-T
°C
Wind Press
QNH
hPa
Press
MSL
hPa
Rain since
9am
mm
Dir  Spd
km/h
Gust
km/h
Spd
kts
Gust
kts
22/11:30pm 20.1 20.7 16.7 81 2.1 E 9 11 5 6 1017.8 1017.8 0.0
22/11:00pm 20.5 20.6 16.5 78 2.4 ESE 11 13 6 7 1018.0 1018.0 0.0
22/10:30pm 20.8 20.9 16.4 76 2.7 E 11 15 6 8 1018.1 1018.1 0.0
22/10:00pm 21.3 20.6 16.3 73 3.0 E 15 19 8 10 1018.0 1018.0 0.0
22/09:30pm 21.3 20.3 15.6 70 3.4 E 15 20 8 11 1018.0 1018.0 0.0
22/09:00pm 21.4 19.6 15.5 69 3.5 ENE 19 20 10 11 1018.0 1018.0 0.0
22/08:30pm 21.7 19.7 15.5 68 3.7 ENE 20 24 11 13 1017.8 1017.8 0.0
22/08:00pm 21.8 19.7 15.2 66 3.9 ENE 20 22 11 12 1017.7 1017.7 0.0
22/07:30pm 21.9 19.1 16.4 71 3.3 ENE 26 32 14 17 1017.3 1017.3 0.0
22/07:00pm 22.0 19.0 16.7 72 3.2 E 28 32 15 17 1017.0 1017.0 0.0
22/06:30pm 22.1 20.0 17.2 74 3.0 E 24 30 13 16 1016.7 1016.7 0.0
22/06:00pm 22.6 19.8 17.3 72 3.3 E 28 33 15 18 1016.4 1016.4 0.0
22/05:30pm 23.3 19.8 17.5 70 3.6 E 32 37 17 20 1016.4 1016.4 0.0
22/05:00pm 23.6 19.5 17.3 67 3.9 E 35 41 19 22 1016.1 1016.1 0.0
22/04:30pm 24.2 20.4 17.2 65 4.3 E 33 39 18 21 1015.8 1015.8 0.0
22/04:00pm 24.9 21.2 16.9 61 4.9 E 32 39 17 21 1015.6 1015.6 0.0
22/03:30pm 25.5 22.1 15.8 55 5.9 E 28 33 15 18 1015.5 1015.5 0.0
22/03:00pm 26.0 22.0 14.1 47 7.1 E 28 33 15 18 1015.8 1015.8 0.0
22/02:30pm 26.1 21.7 14.2 48 7.1 E 30 35 16 19 1016.1 1016.1 0.0
22/02:00pm 25.7 20.4 13.2 46 7.3 E 33 39 18 21 1016.3 1016.3 0.0
22/01:30pm 25.8 19.7 11.6 41 8.1 E 35 43 19 23 1016.5 1016.5 0.0
22/01:00pm 25.7 19.5 11.5 41 8.1 E 35 43 19 23 1016.9 1016.9 0.0
22/12:30pm 25.1 17.7 9.8 38 8.4 ESE 39 46 21 25 1017.2 1017.2 0.0
22/12:00pm 25.2 18.2 9.9 38 8.4 ESE 37 43 20 23 1017.6 1017.6 0.0
22/11:30am 25.0 18.9 9.7 38 8.4 ESE 32 39 17 21 1018.2 1018.2 0.0
22/11:00am 24.9 18.0 7.1 32 9.3 ESE 33 43 18 23 1018.6 1018.6 0.0
22/10:30am 24.5 15.8 5.8 30 9.5 ESE 41 48 22 26 1018.7 1018.7 0.0
22/10:12am 24.3 16.8 6.1 31 9.3 ESE 35 50 19 27 1018.8 1018.8 0.0
22/10:00am 24.6 19.5 7.7 34 8.9 ESE 24 30 13 16 1018.9 1018.9 0.0
22/09:30am 23.6 17.0 4.0 28 9.6 SE 28 32 15 17 1018.9 1018.9 0.0
22/09:00am 22.4 15.6 3.0 28 9.2 SSE 28 33 15 18 1018.8 1018.8 0.0
22/08:30am 21.1 14.7 5.1 35 7.9 SSE 28 35 15 19 1018.7 1018.7 0.0
22/08:00am 20.2 12.7 4.3 35 7.7 SSE 33 39 18 21 1018.5 1018.5 0.0
22/07:30am 20.1 13.0 6.5 41 6.8 SSE 33 39 18 21 1018.4 1018.4 0.0
22/07:00am 19.7 12.7 6.1 41 6.8 SSE 32 39 17 21 1018.0 1018.0 0.0
22/06:30am 19.7 12.8 6.4 42 6.6 SSE 32 39 17 21 1017.7 1017.7 0.0
22/06:00am 19.9 12.8 5.5 39 7.1 SSE 32 37 17 20 1017.3 1017.3 0.0
22/05:30am 20.1 12.7 6.8 42 6.7 SE 35 39 19 21 1017.0 1017.0 0.0
22/05:00am 20.4 11.8 4.4 35 7.7 SE 39 44 21 24 1016.8 1016.8 0.0
22/04:30am 20.5 12.3 6.5 40 7.0 SE 39 46 21 25 1016.7 1016.7 0.0
22/04:00am 20.5 12.7 8.2 45 6.4 SE 39 46 21 25 1016.8 1016.8 0.0
22/03:30am 20.8 13.0 8.4 45 6.5 SE 39 48 21 26 1016.8 1016.8 0.0
22/03:00am 20.2 14.3 11.1 56 5.0 SE 33 41 18 22 1016.9 1016.9 0.0
22/02:30am 20.3 16.0 14.4 69 3.4 SE 30 35 16 19 1017.1 1017.1 0.0
22/02:00am 20.1 18.0 16.3 79 2.3 SE 22 26 12 14 1017.4 1017.4 0.0
22/01:30am 20.2 18.8 17.0 82 1.9 SE 20 24 11 13 1017.6 1017.6 0.0
22/01:00am 20.1 19.5 17.5 85 1.6 SE 17 20 9 11 1017.9 1017.9 0.0
22/12:30am 20.5 20.4 17.9 85 1.6 SE 15 17 8 9 1018.2 1018.2 0.0
22/12:00am 21.5 20.6 18.3 82 2.0 ESE 20 24 11 13 1018.1 1018.1 0.0
 
Date/Time
CST
Temp
°C
App
Temp
°C
Dew
Point
°C
Rel
Hum
%
Delta-T
°C
Wind Press
QNH
hPa
Press
MSL
hPa
Rain since
9am
mm
Dir  Spd
km/h
Gust
km/h
Spd
kts
Gust
kts
21/11:30pm 21.3 20.4 17.7 80 2.2 ESE 19 22 10 12 1018.1 1018.1 0.0
21/11:00pm 21.4 20.2 17.0 76 2.7 ESE 19 22 10 12 1018.2 1018.2 0.0
21/10:30pm 21.6 20.2 17.0 75 2.8 E 20 22 11 12 1018.1 1018.1 0.0
21/10:00pm 21.6 20.0 16.6 73 3.0 E 20 26 11 14 1018.1 1018.1 0.0
21/09:30pm 21.8 19.8 16.5 72 3.2 E 22 26 12 14 1018.1 1018.1 0.0
21/09:00pm 21.9 19.1 16.4 71 3.3 E 26 30 14 16 1018.0 1018.0 0.0
21/08:30pm 22.0 19.5 16.1 69 3.6 E 24 30 13 16 1017.8 1017.8 0.0
21/08:00pm 22.2 19.1 15.5 66 4.0 E 26 32 14 17 1017.6 1017.6 0.0
21/07:30pm 22.2 18.9 15.1 64 4.2 E 26 32 14 17 1017.2 1017.2 0.0
21/07:00pm 22.4 18.6 14.8 62 4.5 E 28 32 15 17 1016.7 1016.7 0.0
21/06:30pm 22.7 18.0 14.3 59 4.9 E 32 37 17 20 1016.4 1016.4 0.0
21/06:00pm 22.9 18.5 14.2 58 5.1 E 30 35 16 19 1016.3 1016.3 0.0
21/05:30pm 23.6 19.1 13.8 54 5.7 E 30 39 16 21 1016.3 1016.3 0.0
21/05:00pm 24.3 20.0 14.4 54 5.9 E 30 37 16 20 1016.3 1016.3 0.0
21/04:30pm 24.6 19.7 13.8 51 6.3 ESE 32 35 17 19 1016.3 1016.3 0.0
21/04:00pm 24.9 19.3 12.2 45 7.3 ESE 33 39 18 21 1016.2 1016.2 0.0
21/03:30pm 25.4 20.1 12.6 45 7.4 ESE 32 37 17 20 1016.1 1016.1 0.0
21/03:00pm 25.6 20.0 11.4 41 8.0 ESE 32 39 17 21 1016.2 1016.2 0.0
21/02:30pm 25.5 20.0 12.0 43 7.7 ESE 32 37 17 20 1016.5 1016.5 0.0
21/02:00pm 25.7 19.8 11.1 40 8.2 ESE 33 39 18 21 1016.8 1016.8 0.0
21/01:30pm 25.7 19.6 9.9 37 8.7 ESE 32 39 17 21 1017.2 1017.2 0.0
21/01:00pm 25.1 17.9 7.7 33 9.2 E 35 41 19 22 1017.6 1017.6 0.0
21/12:30pm 24.8 17.5 7.4 33 9.1 ESE 35 41 19 22 1018.2 1018.2 0.0
21/12:00pm 25.0 17.8 7.6 33 9.2 ESE 35 41 19 22 1018.6 1018.6 0.0
21/11:30am 24.4 16.9 6.2 31 9.3 ESE 35 41 19 22 1019.1 1019.1 0.0
21/11:00am 23.7 15.1 4.6 29 9.5 ESE 39 46 21 25 1019.6 1019.6 0.0
21/10:30am 23.6 16.7 7.3 35 8.5 ESE 33 41 18 22 1020.0 1020.0 0.0
21/10:00am 22.4 14.6 3.0 28 9.3 ESE 33 39 18 21 1020.1 1020.1 0.0
21/09:30am 21.5 14.0 3.7 31 8.5 SE 32 35 17 19 1020.2 1020.2 0.0
21/09:00am 21.0 13.4 4.1 33 8.1 SE 33 37 18 20 1019.9 1019.9 0.0
21/08:30am 20.0 13.1 4.5 36 7.5 SSE 30 37 16 20 1019.7 1019.7 0.0
21/08:00am 19.3 11.5 3.1 34 7.6 SSE 33 43 18 23 1019.5 1019.5 0.0
21/07:30am 19.1 10.6 2.9 34 7.5 SSE 37 44 20 24 1019.2 1019.2 0.0
21/07:00am 18.8 10.7 3.4 36 7.2 SSE 35 44 19 24 1019.1 1019.1 0.0
21/06:30am 18.7 10.9 2.9 35 7.3 SSE 33 46 18 25 1019.0 1019.0 0.0
21/06:00am 18.7 11.0 2.5 34 7.4 SSE 32 43 17 23 1018.6 1018.6 0.0
21/05:30am 18.9 11.3 3.9 37 7.1 SSE 33 43 18 23 1018.4 1018.4 0.0
21/05:00am 19.1 12.0 3.3 35 7.4 SSE 30 37 16 20 1018.5 1018.5 0.0
21/04:30am 19.5 11.8 2.4 32 7.9 S 32 37 17 20 1018.3 1018.3 0.0
21/04:00am 19.7 12.3 3.8 35 7.6 SSE 32 37 17 20 1018.1 1018.1 0.0
21/03:30am 20.0 12.6 4.9 37 7.3 SSE 33 39 18 21 1018.0 1018.0 0.0
21/03:00am 20.2 13.4 5.1 37 7.4 SSE 30 35 16 19 1018.1 1018.1 0.0
21/02:30am 20.6 14.1 6.5 40 7.1 SSE 30 37 16 20 1018.2 1018.2 0.0
21/02:00am 20.8 14.8 7.1 41 7.0 SSE 28 32 15 17 1018.6 1018.6 0.0
21/01:30am 21.3 14.2 5.6 36 7.8 SE 32 37 17 20 1018.9 1018.9 0.0
21/01:00am 21.4 14.2 5.7 36 7.8 SE 33 39 18 21 1019.0 1019.0 0.0
21/12:30am 22.2 14.7 6.4 36 8.0 SE 35 41 19 22 1019.0 1019.0 0.0
21/12:00am 22.3 16.0 7.3 38 7.7 SSE 30 37 16 20 1019.0 1019.0 0.0
 
Date/Time
CST
Temp
°C
App
Temp
°C
Dew
Point
°C
Rel
Hum
%
Delta-T
°C
Wind Press
QNH
hPa
Press
MSL
hPa
Rain since
9am
mm
Dir  Spd
km/h
Gust
km/h
Spd
kts
Gust
kts
20/11:30pm 22.6 15.8 6.8 36 8.1 SSE 32 39 17 21 1018.9 1018.9 0.0
20/11:00pm 22.7 16.0 7.3 37 8.0 SSE 32 37 17 20 1018.9 1018.9 0.0
20/10:30pm 22.9 16.8 9.7 43 7.1 SSE 32 39 17 21 1019.0 1019.0 0.0
20/10:00pm 23.0 18.0 11.1 47 6.6 SSE 28 33 15 18 1019.0 1019.0 0.0
20/09:30pm 22.5 20.4 14.6 61 4.6 SSE 19 22 10 12 1019.1 1019.1 0.0
20/09:00pm 22.4 21.1 16.7 70 3.5 SE 19 22 10 12 1019.0 1019.0 0.0
20/08:30pm 22.4 20.3 14.8 62 4.5 ESE 19 22 10 12 1018.9 1018.9 0.0
20/08:00pm 22.4 20.7 13.5 57 5.1 ESE 15 19 8 10 1018.9 1018.9 0.0
20/07:30pm 22.2 21.4 13.0 56 5.3 ESE 9 13 5 7 1018.6 1018.6 0.0
20/07:00pm 22.4 20.6 13.2 56 5.3 E 15 19 8 10 1018.1 1018.1 0.0
20/06:30pm 23.0 21.0 13.8 56 5.4 E 17 20 9 11 1017.8 1017.8 0.0
20/06:00pm 23.7 21.7 13.8 53 5.8 E 17 20 9 11 1017.6 1017.6 0.0
20/05:30pm 24.6 23.9 14.4 53 6.0 E 11 15 6 8 1017.3 1017.3 0.0
20/05:00pm 25.6 24.4 12.8 45 7.4 SE 11 15 6 8 1017.0 1017.0 0.0
20/04:30pm 25.5 23.2 8.9 35 9.0 ESE 11 11 6 6 1017.0 1017.0 0.0
20/04:00pm 25.2 22.7 8.2 34 9.1 ESE 11 15 6 8 1017.1 1017.1 0.0
20/03:30pm 25.6 23.4 7.7 32 9.5 E 9 13 5 7 1017.3 1017.3 0.0
20/03:00pm 26.1 23.3 8.6 33 9.5 ESE 13 15 7 8 1017.3 1017.3 0.0
20/02:30pm 26.6 22.7 7.1 29 10.3 SE 17 19 9 10 1017.7 1017.7 0.0

Other formats

Comma delimited format used in spreadsheet applications
http://www.bom.gov.au/fwo/IDD60801/IDD60801.94248.axf

JavaScript Object Notation format (JSON) in row-major order
http://www.bom.gov.au/fwo/IDD60801/IDD60801.94248.json

Data quality

Most of these data are generated automatically and are frequently updated. Quality checks on data are not normally performed. It is possible for incorrect values to appear. Refer to information at About Latest Weather Observations and please check the disclaimer before using these data.